createdAt,value
2022-07-26T00:00:35.937Z,23.92
2022-07-26T00:03:21.763Z,23.86
2022-07-26T00:06:07.775Z,23.73
2022-07-26T00:08:54.305Z,23.78
2022-07-26T00:11:40.384Z,23.75
2022-07-26T00:14:26.569Z,23.69
2022-07-26T00:17:12.823Z,23.69
2022-07-26T00:19:58.797Z,23.57
2022-07-26T00:22:44.750Z,23.65
2022-07-26T00:25:30.652Z,23.51
2022-07-26T00:28:16.739Z,23.51
2022-07-26T00:31:02.877Z,23.50
2022-07-26T00:33:49.027Z,23.45
2022-07-26T00:36:34.962Z,23.28
2022-07-26T00:39:22.400Z,23.36
2022-07-26T00:42:08.149Z,23.31
2022-07-26T00:44:54.105Z,23.32
2022-07-26T00:47:40.436Z,23.31
2022-07-26T00:50:26.479Z,23.17
2022-07-26T00:53:12.465Z,23.21
2022-07-26T00:55:58.729Z,23.14
2022-07-26T00:58:45.297Z,23.10
2022-07-26T01:01:31.425Z,23.13
2022-07-26T01:04:17.658Z,23.08
2022-07-26T01:07:14.945Z,23.08
2022-07-26T01:10:03.275Z,23.07
2022-07-26T01:12:49.539Z,23.05
2022-07-26T01:15:35.773Z,23.02
2022-07-26T01:18:21.522Z,22.96
2022-07-26T01:21:13.360Z,22.93
2022-07-26T01:24:00.270Z,22.83
2022-07-26T01:26:46.334Z,22.87
2022-07-26T01:29:34.804Z,22.72
2022-07-26T01:32:22.585Z,22.64
2022-07-26T01:35:08.832Z,22.73
2022-07-26T01:37:54.700Z,22.63
2022-07-26T01:40:40.888Z,22.60
2022-07-26T01:43:26.882Z,22.62
2022-07-26T01:46:13.912Z,22.43
2022-07-26T01:49:01.750Z,22.58
2022-07-26T01:51:47.962Z,22.55
2022-07-26T01:54:33.781Z,22.45
2022-07-26T01:57:19.701Z,22.38
2022-07-26T02:00:07.289Z,22.37
2022-07-26T02:02:53.470Z,22.35
2022-07-26T02:05:39.767Z,22.33
2022-07-26T02:08:25.693Z,22.29
2022-07-26T02:11:11.634Z,22.19
2022-07-26T02:13:57.563Z,22.23
2022-07-26T02:16:43.449Z,22.19
2022-07-26T02:19:30.522Z,22.16
2022-07-26T02:22:16.758Z,22.17
2022-07-26T02:25:05.266Z,22.17
2022-07-26T02:27:52.398Z,22.10
2022-07-26T02:30:38.380Z,22.15
2022-07-26T02:33:25.571Z,22.13
2022-07-26T02:36:11.512Z,22.03
2022-07-26T02:38:57.472Z,22.13
2022-07-26T02:41:43.365Z,22.10
2022-07-26T02:44:29.709Z,22.10
2022-07-26T02:47:15.604Z,21.99
2022-07-26T02:50:01.565Z,21.99
2022-07-26T02:52:48.363Z,22.02
2022-07-26T02:55:34.416Z,22.07
2022-07-26T02:58:25.071Z,22.00
2022-07-26T03:01:11.451Z,22.05
2022-07-26T03:03:58.579Z,22.04
2022-07-26T03:06:44.686Z,22.04
2022-07-26T03:09:30.902Z,21.92
2022-07-26T03:12:17.229Z,21.97
2022-07-26T03:15:03.310Z,21.97
2022-07-26T03:17:50.071Z,21.93
2022-07-26T03:20:36.202Z,21.89
2022-07-26T03:23:22.295Z,21.88
2022-07-26T03:26:08.964Z,21.85
2022-07-26T03:28:55.937Z,21.84
2022-07-26T03:31:41.740Z,21.82
2022-07-26T03:34:27.745Z,21.77
2022-07-26T03:37:13.702Z,21.69
2022-07-26T03:39:59.575Z,21.71
2022-07-26T03:42:47.617Z,21.60
2022-07-26T03:45:33.799Z,21.68
2022-07-26T03:51:05.864Z,21.65
2022-07-26T03:53:52.244Z,21.51
2022-07-26T03:56:38.728Z,21.58
2022-07-26T03:59:25.705Z,21.50
2022-07-26T04:02:11.903Z,21.52
2022-07-26T04:04:57.675Z,21.53
2022-07-26T04:07:49.900Z,21.50
2022-07-26T04:10:39.630Z,21.48
2022-07-26T04:13:25.562Z,21.51
2022-07-26T04:16:11.681Z,21.49
2022-07-26T04:18:58.606Z,21.48
2022-07-26T04:21:44.698Z,21.37
2022-07-26T04:24:30.534Z,21.44
2022-07-26T04:27:16.466Z,21.43
2022-07-26T04:30:02.438Z,21.45
2022-07-26T04:32:48.548Z,21.43
2022-07-26T04:35:35.007Z,21.37
2022-07-26T04:38:20.875Z,21.46
2022-07-26T04:41:06.955Z,21.43
2022-07-26T04:43:53.228Z,21.38
2022-07-26T04:46:39.076Z,21.51
2022-07-26T04:49:30.896Z,21.43
2022-07-26T04:52:17.031Z,21.41
2022-07-26T04:55:04.189Z,21.60
2022-07-26T04:57:50.994Z,21.45
2022-07-26T05:01:02.760Z,21.70
2022-07-26T05:03:44.054Z,21.72
2022-07-26T05:06:29.981Z,21.77
2022-07-26T05:09:16.026Z,21.83
2022-07-26T05:12:02.087Z,21.89
2022-07-26T05:14:48.013Z,21.89
2022-07-26T05:17:35.482Z,21.90
2022-07-26T05:20:22.075Z,22.08
2022-07-26T05:23:08.245Z,22.14
2022-07-26T05:25:55.416Z,22.12
2022-07-26T05:28:41.900Z,22.16
2022-07-26T05:31:28.282Z,22.21
